sensor_id;sensor_type;location;lat;lon;timestamp;pressure;altitude;pressure_sealevel;temperature;humidity
47522;BME280;32291;52.010;4.446;2024-01-06T00:00:32;78184.75;;;-144.67;100.00
47522;BME280;32291;52.010;4.446;2024-01-06T00:01:39;78204.03;;;-144.67;100.00
47522;BME280;32291;52.010;4.446;2024-01-06T00:02:46;78197.59;;;-144.67;100.00
47522;BME280;32291;52.010;4.446;2024-01-06T00:03:53;78197.59;;;-144.67;100.00
47522;BME280;32291;52.010;4.446;2024-01-06T00:05:00;78193.31;;;-144.67;100.00
47522;BME280;32291;52.010;4.446;2024-01-06T00:06:02;78189.03;;;-144.67;100.00
47522;BME280;32291;52.010;4.446;2024-01-06T00:07:09;78182.63;;;-144.67;100.00
47522;BME280;32291;52.010;4.446;2024-01-06T00:08:16;78182.63;;;-144.67;100.00
47522;BME280;32291;52.010;4.446;2024-01-06T00:09:23;78193.31;;;-144.67;100.00
47522;BME280;32291;52.010;4.446;2024-01-06T00:10:30;78184.75;;;-144.67;100.00
47522;BME280;32291;52.010;4.446;2024-01-06T00:11:40;78182.63;;;-144.67;100.00
47522;BME280;32291;52.010;4.446;2024-01-06T00:12:42;78206.19;;;-144.67;100.00
47522;BME280;32291;52.010;4.446;2024-01-06T00:13:44;78193.31;;;-144.67;100.00
47522;BME280;32291;52.010;4.446;2024-01-06T00:14:51;78193.31;;;-144.67;100.00
47522;BME280;32291;52.010;4.446;2024-01-06T00:15:58;78176.19;;;-144.67;100.00
47522;BME280;32291;52.010;4.446;2024-01-06T00:17:05;78174.06;;;-144.67;100.00
47522;BME280;32291;52.010;4.446;2024-01-06T00:18:12;78184.75;;;-144.67;100.00
47522;BME280;32291;52.010;4.446;2024-01-06T00:19:19;78197.59;;;-144.67;100.00
47522;BME280;32291;52.010;4.446;2024-01-06T00:20:26;78199.75;;;-144.67;100.00
47522;BME280;32291;52.010;4.446;2024-01-06T00:21:33;78204.03;;;-144.67;100.00
47522;BME280;32291;52.010;4.446;2024-01-06T00:22:40;78197.59;;;-144.67;100.00
47522;BME280;32291;52.010;4.446;2024-01-06T00:23:44;78201.91;;;-144.67;100.00
47522;BME280;32291;52.010;4.446;2024-01-06T00:24:46;78212.59;;;-144.67;100.00
47522;BME280;32291;52.010;4.446;2024-01-06T00:25:53;78219.03;;;-144.67;100.00
47522;BME280;32291;52.010;4.446;2024-01-06T00:27:00;78229.72;;;-144.67;100.00
47522;BME280;32291;52.010;4.446;2024-01-06T00:28:07;78225.44;;;-144.67;100.00
47522;BME280;32291;52.010;4.446;2024-01-06T00:29:14;78231.88;;;-144.67;100.00
47522;BME280;32291;52.010;4.446;2024-01-06T00:30:16;78214.75;;;-144.67;100.00
47522;BME280;32291;52.010;4.446;2024-01-06T00:31:23;78216.88;;;-144.67;100.00
47522;BME280;32291;52.010;4.446;2024-01-06T00:32:25;78212.59;;;-144.67;100.00
47522;BME280;32291;52.010;4.446;2024-01-06T00:33:32;78214.75;;;-144.67;100.00
47522;BME280;32291;52.010;4.446;2024-01-06T00:34:39;78216.88;;;-144.67;100.00
47522;BME280;32291;52.010;4.446;2024-01-06T00:35:41;78216.88;;;-144.67;100.00
47522;BME280;32291;52.010;4.446;2024-01-06T00:36:47;78221.16;;;-144.67;100.00
47522;BME280;32291;52.010;4.446;2024-01-06T00:37:54;78227.59;;;-144.67;100.00
47522;BME280;32291;52.010;4.446;2024-01-06T00:38:57;78227.59;;;-144.67;100.00
47522;BME280;32291;52.010;4.446;2024-01-06T00:40:05;78231.88;;;-144.67;100.00
47522;BME280;32291;52.010;4.446;2024-01-06T00:41:13;78225.44;;;-144.67;100.00
47522;BME280;32291;52.010;4.446;2024-01-06T00:42:20;78219.03;;;-144.67;100.00
47522;BME280;32291;52.010;4.446;2024-01-06T00:43:27;78223.31;;;-144.67;100.00
47522;BME280;32291;52.010;4.446;2024-01-06T00:44:36;78236.16;;;-144.67;100.00
47522;BME280;32291;52.010;4.446;2024-01-06T00:45:39;78240.44;;;-144.67;100.00
47522;BME280;32291;52.010;4.446;2024-01-06T00:46:46;78240.44;;;-144.67;100.00
47522;BME280;32291;52.010;4.446;2024-01-06T00:47:53;78236.16;;;-144.67;100.00
47522;BME280;32291;52.010;4.446;2024-01-06T00:49:00;78240.44;;;-144.67;100.00
47522;BME280;32291;52.010;4.446;2024-01-06T00:50:02;78242.56;;;-144.67;100.00
47522;BME280;32291;52.010;4.446;2024-01-06T00:51:09;78240.44;;;-144.67;100.00
47522;BME280;32291;52.010;4.446;2024-01-06T00:52:12;78251.13;;;-144.67;100.00
47522;BME280;32291;52.010;4.446;2024-01-06T00:53:19;78244.72;;;-144.67;100.00
47522;BME280;32291;52.010;4.446;2024-01-06T00:54:26;78244.72;;;-144.67;100.00
47522;BME280;32291;52.010;4.446;2024-01-06T00:55:33;78236.16;;;-144.67;100.00
47522;BME280;32291;52.010;4.446;2024-01-06T00:56:39;78249.00;;;-144.67;100.00
47522;BME280;32291;52.010;4.446;2024-01-06T00:57:50;78261.84;;;-144.67;100.00
47522;BME280;32291;52.010;4.446;2024-01-06T00:58:57;78244.72;;;-144.67;100.00
47522;BME280;32291;52.010;4.446;2024-01-06T01:00:05;78246.84;;;-144.67;100.00
47522;BME280;32291;52.010;4.446;2024-01-06T01:01:12;78238.28;;;-144.67;100.00
47522;BME280;32291;52.010;4.446;2024-01-06T01:02:19;78244.72;;;-144.67;100.00
47522;BME280;32291;52.010;4.446;2024-01-06T01:03:26;78257.56;;;-144.67;100.00
47522;BME280;32291;52.010;4.446;2024-01-06T01:04:33;78257.56;;;-144.67;100.00
47522;BME280;32291;52.010;4.446;2024-01-06T01:05:40;78246.84;;;-144.67;100.00
47522;BME280;32291;52.010;4.446;2024-01-06T01:06:46;78255.41;;;-144.67;100.00
47522;BME280;32291;52.010;4.446;2024-01-06T01:07:49;78259.69;;;-144.67;100.00
47522;BME280;32291;52.010;4.446;2024-01-06T01:08:56;78270.41;;;-144.67;100.00
47522;BME280;32291;52.010;4.446;2024-01-06T01:10:03;78274.69;;;-144.67;100.00
47522;BME280;32291;52.010;4.446;2024-01-06T01:11:11;78278.97;;;-144.67;100.00
47522;BME280;32291;52.010;4.446;2024-01-06T01:12:18;78270.41;;;-144.67;100.00
47522;BME280;32291;52.010;4.446;2024-01-06T01:13:20;78274.69;;;-144.67;100.00
47522;BME280;32291;52.010;4.446;2024-01-06T01:14:27;78287.53;;;-144.67;100.00
47522;BME280;32291;52.010;4.446;2024-01-06T01:15:34;78276.81;;;-144.67;100.00
47522;BME280;32291;52.010;4.446;2024-01-06T01:16:41;78274.69;;;-144.67;100.00
47522;BME280;32291;52.010;4.446;2024-01-06T01:17:48;78274.69;;;-144.67;100.00
47522;BME280;32291;52.010;4.446;2024-01-06T01:18:55;78281.09;;;-144.67;100.00
47522;BME280;32291;52.010;4.446;2024-01-06T01:20:02;78274.69;;;-144.67;100.00
47522;BME280;32291;52.010;4.446;2024-01-06T01:21:12;78287.53;;;-144.67;100.00
47522;BME280;32291;52.010;4.446;2024-01-06T01:22:19;78291.81;;;-144.67;100.00
47522;BME280;32291;52.010;4.446;2024-01-06T01:23:25;78287.53;;;-144.67;100.00
47522;BME280;32291;52.010;4.446;2024-01-06T01:24:33;78281.09;;;-144.67;100.00
47522;BME280;32291;52.010;4.446;2024-01-06T01:25:40;78283.25;;;-144.67;100.00
47522;BME280;32291;52.010;4.446;2024-01-06T01:26:46;78291.81;;;-144.67;100.00
47522;BME280;32291;52.010;4.446;2024-01-06T01:27:53;78291.81;;;-144.67;100.00
47522;BME280;32291;52.010;4.446;2024-01-06T01:29:00;78291.81;;;-144.67;100.00
47522;BME280;32291;52.010;4.446;2024-01-06T01:30:10;78283.25;;;-144.67;100.00
47522;BME280;32291;52.010;4.446;2024-01-06T01:31:13;78291.81;;;-144.67;100.00
47522;BME280;32291;52.010;4.446;2024-01-06T01:32:15;78289.66;;;-144.67;100.00
47522;BME280;32291;52.010;4.446;2024-01-06T01:33:17;78293.94;;;-144.67;100.00
47522;BME280;32291;52.010;4.446;2024-01-06T01:34:18;78296.09;;;-144.67;100.00
47522;BME280;32291;52.010;4.446;2024-01-06T01:35:25;78296.09;;;-144.67;100.00
47522;BME280;32291;52.010;4.446;2024-01-06T01:36:32;78304.66;;;-144.67;100.00
47522;BME280;32291;52.010;4.446;2024-01-06T01:37:34;78308.94;;;-144.67;100.00
47522;BME280;32291;52.010;4.446;2024-01-06T01:38:41;78317.50;;;-144.67;100.00
47522;BME280;32291;52.010;4.446;2024-01-06T01:39:49;78308.94;;;-144.67;100.00
47522;BME280;32291;52.010;4.446;2024-01-06T01:40:55;78304.66;;;-144.67;100.00
47522;BME280;32291;52.010;4.446;2024-01-06T01:41:57;78313.22;;;-144.67;100.00
47522;BME280;32291;52.010;4.446;2024-01-06T01:42:59;78304.66;;;-144.67;100.00
47522;BME280;32291;52.010;4.446;2024-01-06T01:44:06;78306.81;;;-144.67;100.00
47522;BME280;32291;52.010;4.446;2024-01-06T01:45:13;78304.66;;;-144.67;100.00
47522;BME280;32291;52.010;4.446;2024-01-06T01:46:20;78308.94;;;-144.67;100.00
47522;BME280;32291;52.010;4.446;2024-01-06T01:47:27;78308.94;;;-144.67;100.00
47522;BME280;32291;52.010;4.446;2024-01-06T01:48:30;78304.66;;;-144.67;100.00
47522;BME280;32291;52.010;4.446;2024-01-06T01:49:40;78313.22;;;-144.67;100.00
47522;BME280;32291;52.010;4.446;2024-01-06T01:50:48;78319.66;;;-144.67;100.00
47522;BME280;32291;52.010;4.446;2024-01-06T01:51:55;78334.63;;;-144.67;100.00
47522;BME280;32291;52.010;4.446;2024-01-06T01:53:02;78353.91;;;-144.67;100.00
47522;BME280;32291;52.010;4.446;2024-01-06T01:54:06;78368.88;;;-144.67;100.00
47522;BME280;32291;52.010;4.446;2024-01-06T01:55:09;78343.19;;;-144.67;100.00
47522;BME280;32291;52.010;4.446;2024-01-06T01:56:17;78360.31;;;-144.67;100.00
47522;BME280;32291;52.010;4.446;2024-01-06T01:57:20;78377.44;;;-144.67;100.00
47522;BME280;32291;52.010;4.446;2024-01-06T01:58:24;78368.88;;;-144.67;100.00
47522;BME280;32291;52.010;4.446;2024-01-06T01:59:26;78375.31;;;-144.67;100.00
47522;BME280;32291;52.010;4.446;2024-01-06T02:00:28;78386.03;;;-144.67;100.00
47522;BME280;32291;52.010;4.446;2024-01-06T02:01:36;78381.72;;;-144.67;100.00
47522;BME280;32291;52.010;4.446;2024-01-06T02:02:38;78386.03;;;-144.67;100.00
47522;BME280;32291;52.010;4.446;2024-01-06T02:03:44;78392.44;;;-144.67;100.00
47522;BME280;32291;52.010;4.446;2024-01-06T02:04:51;78394.59;;;-144.67;100.00
47522;BME280;32291;52.010;4.446;2024-01-06T02:05:58;78403.16;;;-144.67;100.00
47522;BME280;32291;52.010;4.446;2024-01-06T02:07:05;78392.44;;;-144.67;100.00
47522;BME280;32291;52.010;4.446;2024-01-06T02:08:07;78394.59;;;-144.67;100.00
47522;BME280;32291;52.010;4.446;2024-01-06T02:09:09;78394.59;;;-144.67;100.00
47522;BME280;32291;52.010;4.446;2024-01-06T02:10:17;78394.59;;;-144.67;100.00
47522;BME280;32291;52.010;4.446;2024-01-06T02:11:24;78398.88;;;-144.67;100.00
47522;BME280;32291;52.010;4.446;2024-01-06T02:12:31;78405.28;;;-144.67;100.00
47522;BME280;32291;52.010;4.446;2024-01-06T02:13:38;78433.13;;;-144.67;100.00
47522;BME280;32291;52.010;4.446;2024-01-06T02:14:45;78424.56;;;-144.67;100.00
47522;BME280;32291;52.010;4.446;2024-01-06T02:15:52;78441.69;;;-144.67;100.00
47522;BME280;32291;52.010;4.446;2024-01-06T02:16:59;78433.13;;;-144.67;100.00
47522;BME280;32291;52.010;4.446;2024-01-06T02:18:02;78454.53;;;-144.67;100.00
47522;BME280;32291;52.010;4.446;2024-01-06T02:19:08;78454.53;;;-144.67;100.00
47522;BME280;32291;52.010;4.446;2024-01-06T02:20:14;78445.97;;;-144.67;100.00
47522;BME280;32291;52.010;4.446;2024-01-06T02:21:23;78450.25;;;-144.67;100.00
47522;BME280;32291;52.010;4.446;2024-01-06T02:22:25;78454.53;;;-144.67;100.00
47522;BME280;32291;52.010;4.446;2024-01-06T02:23:36;78441.69;;;-144.67;100.00
47522;BME280;32291;52.010;4.446;2024-01-06T02:24:43;78454.53;;;-144.67;100.00
47522;BME280;32291;52.010;4.446;2024-01-06T02:25:50;78463.09;;;-144.67;100.00
47522;BME280;32291;52.010;4.446;2024-01-06T02:26:57;78463.09;;;-144.67;100.00
47522;BME280;32291;52.010;4.446;2024-01-06T02:28:06;78448.09;;;-144.67;100.00
47522;BME280;32291;52.010;4.446;2024-01-06T02:29:13;78439.53;;;-144.67;100.00
47522;BME280;32291;52.010;4.446;2024-01-06T02:30:15;78450.25;;;-144.67;100.00
47522;BME280;32291;52.010;4.446;2024-01-06T02:31:17;78445.97;;;-144.67;100.00
47522;BME280;32291;52.010;4.446;2024-01-06T02:32:19;78441.69;;;-144.67;100.00
47522;BME280;32291;52.010;4.446;2024-01-06T02:33:26;78437.41;;;-144.67;100.00
47522;BME280;32291;52.010;4.446;2024-01-06T02:34:33;78437.41;;;-144.67;100.00
47522;BME280;32291;52.010;4.446;2024-01-06T02:35:41;78452.38;;;-144.67;100.00
47522;BME280;32291;52.010;4.446;2024-01-06T02:36:43;78454.53;;;-144.67;100.00
47522;BME280;32291;52.010;4.446;2024-01-06T02:37:50;78454.53;;;-144.67;100.00
47522;BME280;32291;52.010;4.446;2024-01-06T02:38:57;78454.53;;;-144.67;100.00
47522;BME280;32291;52.010;4.446;2024-01-06T02:40:04;78463.09;;;-144.67;100.00
47522;BME280;32291;52.010;4.446;2024-01-06T02:41:11;78473.81;;;-144.67;100.00
47522;BME280;32291;52.010;4.446;2024-01-06T02:42:13;78467.38;;;-144.67;100.00
47522;BME280;32291;52.010;4.446;2024-01-06T02:43:16;78458.81;;;-144.67;100.00
47522;BME280;32291;52.010;4.446;2024-01-06T02:44:22;78463.09;;;-144.67;100.00
47522;BME280;32291;52.010;4.446;2024-01-06T02:45:29;78460.94;;;-144.67;100.00
47522;BME280;32291;52.010;4.446;2024-01-06T02:46:36;78463.09;;;-144.67;100.00
47522;BME280;32291;52.010;4.446;2024-01-06T02:47:39;78463.09;;;-144.67;100.00
47522;BME280;32291;52.010;4.446;2024-01-06T02:48:41;78450.25;;;-144.67;100.00
47522;BME280;32291;52.010;4.446;2024-01-06T02:49:49;78454.53;;;-144.67;100.00
47522;BME280;32291;52.010;4.446;2024-01-06T02:50:56;78465.25;;;-144.67;100.00
47522;BME280;32291;52.010;4.446;2024-01-06T02:52:03;78458.81;;;-144.67;100.00
47522;BME280;32291;52.010;4.446;2024-01-06T02:53:06;78458.81;;;-144.67;100.00
47522;BME280;32291;52.010;4.446;2024-01-06T02:54:13;78463.09;;;-144.67;100.00
47522;BME280;32291;52.010;4.446;2024-01-06T02:55:20;78460.94;;;-144.67;100.00
47522;BME280;32291;52.010;4.446;2024-01-06T02:56:27;78482.38;;;-144.67;100.00
47522;BME280;32291;52.010;4.446;2024-01-06T02:57:34;78475.94;;;-144.67;100.00
47522;BME280;32291;52.010;4.446;2024-01-06T02:58:42;78471.66;;;-144.67;100.00
47522;BME280;32291;52.010;4.446;2024-01-06T02:59:49;78465.25;;;-144.67;100.00
47522;BME280;32291;52.010;4.446;2024-01-06T03:00:51;78471.66;;;-144.67;100.00
47522;BME280;32291;52.010;4.446;2024-01-06T03:01:58;78475.94;;;-144.67;100.00
47522;BME280;32291;52.010;4.446;2024-01-06T03:03:05;78488.78;;;-144.67;100.00
47522;BME280;32291;52.010;4.446;2024-01-06T03:04:12;78501.63;;;-144.67;100.00
47522;BME280;32291;52.010;4.446;2024-01-06T03:05:18;78495.22;;;-144.67;100.00
47522;BME280;32291;52.010;4.446;2024-01-06T03:06:26;78493.06;;;-144.67;100.00
47522;BME280;32291;52.010;4.446;2024-01-06T03:07:28;78484.50;;;-144.67;100.00
47522;BME280;32291;52.010;4.446;2024-01-06T03:08:30;78482.38;;;-144.67;100.00
47522;BME280;32291;52.010;4.446;2024-01-06T03:09:38;78480.22;;;-144.67;100.00
47522;BME280;32291;52.010;4.446;2024-01-06T03:10:40;78475.94;;;-144.67;100.00
47522;BME280;32291;52.010;4.446;2024-01-06T03:11:51;78488.78;;;-144.67;100.00
47522;BME280;32291;52.010;4.446;2024-01-06T03:12:59;78475.94;;;-144.67;100.00
47522;BME280;32291;52.010;4.446;2024-01-06T03:14:06;78467.38;;;-144.67;100.00
47522;BME280;32291;52.010;4.446;2024-01-06T03:15:08;78467.38;;;-144.67;100.00
47522;BME280;32291;52.010;4.446;2024-01-06T03:16:12;78471.66;;;-144.67;100.00
47522;BME280;32291;52.010;4.446;2024-01-06T03:17:19;78486.66;;;-144.67;100.00
47522;BME280;32291;52.010;4.446;2024-01-06T03:18:26;78473.81;;;-144.67;100.00
47522;BME280;32291;52.010;4.446;2024-01-06T03:19:28;78473.81;;;-144.67;100.00
47522;BME280;32291;52.010;4.446;2024-01-06T03:20:35;78471.66;;;-144.67;100.00
47522;BME280;32291;52.010;4.446;2024-01-06T03:21:42;78484.50;;;-144.67;100.00
47522;BME280;32291;52.010;4.446;2024-01-06T03:22:45;78480.22;;;-144.67;100.00
47522;BME280;32291;52.010;4.446;2024-01-06T03:23:52;78484.50;;;-144.67;100.00
47522;BME280;32291;52.010;4.446;2024-01-06T03:24:58;78490.94;;;-144.67;100.00
47522;BME280;32291;52.010;4.446;2024-01-06T03:26:06;78495.22;;;-144.67;100.00
47522;BME280;32291;52.010;4.446;2024-01-06T03:27:13;78497.34;;;-144.67;100.00
47522;BME280;32291;52.010;4.446;2024-01-06T03:28:21;78495.22;;;-144.67;100.00
47522;BME280;32291;52.010;4.446;2024-01-06T03:29:27;78499.50;;;-144.67;100.00
47522;BME280;32291;52.010;4.446;2024-01-06T03:30:34;78497.34;;;-144.67;100.00
47522;BME280;32291;52.010;4.446;2024-01-06T03:31:37;78501.63;;;-144.67;100.00
47522;BME280;32291;52.010;4.446;2024-01-06T03:32:44;78503.78;;;-144.67;100.00
47522;BME280;32291;52.010;4.446;2024-01-06T03:33:51;78501.63;;;-144.67;100.00
47522;BME280;32291;52.010;4.446;2024-01-06T03:35:00;78501.63;;;-144.67;100.00
47522;BME280;32291;52.010;4.446;2024-01-06T03:36:07;78501.63;;;-144.67;100.00
47522;BME280;32291;52.010;4.446;2024-01-06T03:37:14;78501.63;;;-144.67;100.00
47522;BME280;32291;52.010;4.446;2024-01-06T03:38:21;78501.63;;;-144.67;100.00
47522;BME280;32291;52.010;4.446;2024-01-06T03:39:28;78505.91;;;-144.67;100.00
47522;BME280;32291;52.010;4.446;2024-01-06T03:40:30;78505.91;;;-144.67;100.00
47522;BME280;32291;52.010;4.446;2024-01-06T03:41:37;78501.63;;;-144.67;100.00
47522;BME280;32291;52.010;4.446;2024-01-06T03:42:44;78493.06;;;-144.67;100.00
47522;BME280;32291;52.010;4.446;2024-01-06T03:43:46;78499.50;;;-144.67;100.00
47522;BME280;32291;52.010;4.446;2024-01-06T03:44:53;78501.63;;;-144.67;100.00
47522;BME280;32291;52.010;4.446;2024-01-06T03:46:00;78510.19;;;-144.67;100.00
47522;BME280;32291;52.010;4.446;2024-01-06T03:47:07;78518.75;;;-144.67;100.00
47522;BME280;32291;52.010;4.446;2024-01-06T03:48:14;78533.75;;;-144.67;100.00
47522;BME280;32291;52.010;4.446;2024-01-06T03:49:20;78533.75;;;-144.67;100.00
47522;BME280;32291;52.010;4.446;2024-01-06T03:50:28;78527.31;;;-144.67;100.00
47522;BME280;32291;52.010;4.446;2024-01-06T03:51:34;78527.31;;;-144.67;100.00
47522;BME280;32291;52.010;4.446;2024-01-06T03:52:41;78529.47;;;-144.67;100.00
47522;BME280;32291;52.010;4.446;2024-01-06T03:53:43;78531.63;;;-144.67;100.00
47522;BME280;32291;52.010;4.446;2024-01-06T03:54:46;78525.19;;;-144.67;100.00
47522;BME280;32291;52.010;4.446;2024-01-06T03:55:53;78523.03;;;-144.67;100.00
47522;BME280;32291;52.010;4.446;2024-01-06T03:56:59;78531.63;;;-144.67;100.00
47522;BME280;32291;52.010;4.446;2024-01-06T03:58:06;78523.03;;;-144.67;100.00
47522;BME280;32291;52.010;4.446;2024-01-06T03:59:13;78527.31;;;-144.67;100.00
47522;BME280;32291;52.010;4.446;2024-01-06T04:00:16;78533.75;;;-144.67;100.00
47522;BME280;32291;52.010;4.446;2024-01-06T04:01:23;78535.91;;;-144.67;100.00
47522;BME280;32291;52.010;4.446;2024-01-06T04:02:26;78533.75;;;-144.67;100.00
47522;BME280;32291;52.010;4.446;2024-01-06T04:03:28;78535.91;;;-144.67;100.00
47522;BME280;32291;52.010;4.446;2024-01-06T04:04:30;78527.31;;;-144.67;100.00
47522;BME280;32291;52.010;4.446;2024-01-06T04:05:32;78531.63;;;-144.67;100.00
47522;BME280;32291;52.010;4.446;2024-01-06T04:06:39;78531.63;;;-144.67;100.00
47522;BME280;32291;52.010;4.446;2024-01-06T04:07:41;78527.31;;;-144.67;100.00
47522;BME280;32291;52.010;4.446;2024-01-06T04:08:43;78529.47;;;-144.67;100.00
47522;BME280;32291;52.010;4.446;2024-01-06T04:09:50;78531.63;;;-144.67;100.00
47522;BME280;32291;52.010;4.446;2024-01-06T04:10:52;78550.88;;;-144.67;100.00
47522;BME280;32291;52.010;4.446;2024-01-06T04:11:59;78553.03;;;-144.67;100.00
47522;BME280;32291;52.010;4.446;2024-01-06T04:13:11;78548.75;;;-144.67;100.00
47522;BME280;32291;52.010;4.446;2024-01-06T04:14:18;78542.31;;;-144.67;100.00
47522;BME280;32291;52.010;4.446;2024-01-06T04:15:20;78548.75;;;-144.67;100.00
47522;BME280;32291;52.010;4.446;2024-01-06T04:16:27;78559.44;;;-144.67;100.00
47522;BME280;32291;52.010;4.446;2024-01-06T04:17:34;78553.03;;;-144.67;100.00
47522;BME280;32291;52.010;4.446;2024-01-06T04:18:36;78583.00;;;-144.67;100.00
47522;BME280;32291;52.010;4.446;2024-01-06T04:19:41;78585.13;;;-144.67;100.00
47522;BME280;32291;52.010;4.446;2024-01-06T04:20:44;78580.84;;;-144.67;100.00
47522;BME280;32291;52.010;4.446;2024-01-06T04:21:50;78565.88;;;-144.67;100.00
47522;BME280;32291;52.010;4.446;2024-01-06T04:22:52;78570.16;;;-144.67;100.00
47522;BME280;32291;52.010;4.446;2024-01-06T04:23:59;78570.16;;;-144.67;100.00
47522;BME280;32291;52.010;4.446;2024-01-06T04:25:06;78580.84;;;-144.67;100.00
47522;BME280;32291;52.010;4.446;2024-01-06T04:26:17;78580.84;;;-144.67;100.00
47522;BME280;32291;52.010;4.446;2024-01-06T04:27:19;78570.16;;;-144.67;100.00
47522;BME280;32291;52.010;4.446;2024-01-06T04:28:21;78583.00;;;-144.67;100.00
47522;BME280;32291;52.010;4.446;2024-01-06T04:29:23;78595.84;;;-144.67;100.00
47522;BME280;32291;52.010;4.446;2024-01-06T04:30:29;78587.28;;;-144.67;100.00
47522;BME280;32291;52.010;4.446;2024-01-06T04:31:36;78595.84;;;-144.67;100.00
47522;BME280;32291;52.010;4.446;2024-01-06T04:32:39;78591.56;;;-144.67;100.00
47522;BME280;32291;52.010;4.446;2024-01-06T04:33:41;78585.13;;;-144.67;100.00
47522;BME280;32291;52.010;4.446;2024-01-06T04:34:43;78587.28;;;-144.67;100.00
47522;BME280;32291;52.010;4.446;2024-01-06T04:35:50;78598.00;;;-144.67;100.00
47522;BME280;32291;52.010;4.446;2024-01-06T04:36:56;78604.41;;;-144.67;100.00
47522;BME280;32291;52.010;4.446;2024-01-06T04:38:03;78600.13;;;-144.67;100.00
47522;BME280;32291;52.010;4.446;2024-01-06T04:39:10;78610.84;;;-144.67;100.00
47522;BME280;32291;52.010;4.446;2024-01-06T04:40:19;78591.56;;;-144.67;100.00
47522;BME280;32291;52.010;4.446;2024-01-06T04:41:26;78604.41;;;-144.67;100.00
47522;BME280;32291;52.010;4.446;2024-01-06T04:42:33;78604.41;;;-144.67;100.00
47522;BME280;32291;52.010;4.446;2024-01-06T04:43:39;78598.00;;;-144.67;100.00
47522;BME280;32291;52.010;4.446;2024-01-06T04:44:46;78600.13;;;-144.67;100.00
47522;BME280;32291;52.010;4.446;2024-01-06T04:45:53;78604.41;;;-144.67;100.00
47522;BME280;32291;52.010;4.446;2024-01-06T04:46:56;78600.13;;;-144.67;100.00
47522;BME280;32291;52.010;4.446;2024-01-06T04:47:58;78600.13;;;-144.67;100.00
47522;BME280;32291;52.010;4.446;2024-01-06T04:49:00;78598.00;;;-144.67;100.00
47522;BME280;32291;52.010;4.446;2024-01-06T04:50:02;78595.84;;;-144.67;100.00
47522;BME280;32291;52.010;4.446;2024-01-06T04:51:12;78608.69;;;-144.67;100.00
47522;BME280;32291;52.010;4.446;2024-01-06T04:52:20;78615.13;;;-144.67;100.00
47522;BME280;32291;52.010;4.446;2024-01-06T04:53:22;78608.69;;;-144.67;100.00
47522;BME280;32291;52.010;4.446;2024-01-06T04:54:29;78598.00;;;-144.67;100.00
47522;BME280;32291;52.010;4.446;2024-01-06T04:55:31;78608.69;;;-144.67;100.00
47522;BME280;32291;52.010;4.446;2024-01-06T04:56:40;78600.13;;;-144.67;100.00
47522;BME280;32291;52.010;4.446;2024-01-06T04:57:49;78591.56;;;-144.67;100.00
47522;BME280;32291;52.010;4.446;2024-01-06T04:58:51;78602.28;;;-144.67;100.00
47522;BME280;32291;52.010;4.446;2024-01-06T04:59:53;78606.56;;;-144.67;100.00
47522;BME280;32291;52.010;4.446;2024-01-06T05:01:00;78615.13;;;-144.67;100.00
47522;BME280;32291;52.010;4.446;2024-01-06T05:02:07;78608.69;;;-144.67;100.00
47522;BME280;32291;52.010;4.446;2024-01-06T05:03:09;78600.13;;;-144.67;100.00
47522;BME280;32291;52.010;4.446;2024-01-06T05:04:16;78598.00;;;-144.67;100.00
47522;BME280;32291;52.010;4.446;2024-01-06T05:05:23;78598.00;;;-144.67;100.00
47522;BME280;32291;52.010;4.446;2024-01-06T05:06:30;78593.69;;;-144.67;100.00
47522;BME280;32291;52.010;4.446;2024-01-06T05:07:32;78595.84;;;-144.67;100.00
47522;BME280;32291;52.010;4.446;2024-01-06T05:08:39;78598.00;;;-144.67;100.00
47522;BME280;32291;52.010;4.446;2024-01-06T05:09:51;78602.28;;;-144.67;100.00
47522;BME280;32291;52.010;4.446;2024-01-06T05:10:57;78602.28;;;-144.67;100.00
47522;BME280;32291;52.010;4.446;2024-01-06T05:12:04;78625.81;;;-144.67;100.00
47522;BME280;32291;52.010;4.446;2024-01-06T05:13:11;78623.69;;;-144.67;100.00
47522;BME280;32291;52.010;4.446;2024-01-06T05:14:18;78621.53;;;-144.67;100.00
47522;BME280;32291;52.010;4.446;2024-01-06T05:15:21;78621.53;;;-144.67;100.00
47522;BME280;32291;52.010;4.446;2024-01-06T05:16:23;78638.66;;;-144.67;100.00
47522;BME280;32291;52.010;4.446;2024-01-06T05:17:25;78636.53;;;-144.67;100.00
47522;BME280;32291;52.010;4.446;2024-01-06T05:18:32;78634.38;;;-144.67;100.00
47522;BME280;32291;52.010;4.446;2024-01-06T05:19:34;78651.53;;;-144.67;100.00
47522;BME280;32291;52.010;4.446;2024-01-06T05:20:41;78645.09;;;-144.67;100.00
47522;BME280;32291;52.010;4.446;2024-01-06T05:21:43;78647.22;;;-144.67;100.00
47522;BME280;32291;52.010;4.446;2024-01-06T05:22:46;78651.53;;;-144.67;100.00
47522;BME280;32291;52.010;4.446;2024-01-06T05:23:52;78664.38;;;-144.67;100.00
47522;BME280;32291;52.010;4.446;2024-01-06T05:24:55;78655.81;;;-144.67;100.00
47522;BME280;32291;52.010;4.446;2024-01-06T05:25:57;78660.09;;;-144.67;100.00
47522;BME280;32291;52.010;4.446;2024-01-06T05:26:59;78651.53;;;-144.67;100.00
47522;BME280;32291;52.010;4.446;2024-01-06T05:28:01;78670.78;;;-144.67;100.00
47522;BME280;32291;52.010;4.446;2024-01-06T05:29:08;78662.22;;;-144.67;100.00
47522;BME280;32291;52.010;4.446;2024-01-06T05:30:15;78670.78;;;-144.67;100.00
47522;BME280;32291;52.010;4.446;2024-01-06T05:31:22;78672.94;;;-144.67;100.00
47522;BME280;32291;52.010;4.446;2024-01-06T05:32:29;78681.50;;;-144.67;100.00
47522;BME280;32291;52.010;4.446;2024-01-06T05:33:36;78672.94;;;-144.67;100.00
47522;BME280;32291;52.010;4.446;2024-01-06T05:34:38;78655.81;;;-144.67;100.00